Time;durP1;ratioP1;P1;durP2;ratioP2;P2;SDS_P1;SDS_P2;PMS_P1;PMS_P2;Temp;Humidity;BMP_temperature;BMP_pressure;BME280_temperature;BME280_humidity;BME280_pressure;Samples;Min_cycle;Max_cycle;Signal;HPM_P1;HPM_P2
2023/04/10 00:01:13;;;;;;;46.33;32.30;;;7.50;99.90;;;;;;5082867;28;20101;-90
2023/04/10 00:03:40;;;;;;;51.95;33.67;;;7.40;99.90;;;;;;5081815;28;20047;-89
2023/04/10 00:06:08;;;;;;;46.22;32.22;;;7.40;99.90;;;;;;5085231;28;20067;-89
2023/04/10 00:08:34;;;;;;;47.60;33.10;;;7.40;99.90;;;;;;5079658;28;20036;-90
2023/04/10 00:11:00;;;;;;;47.80;34.05;;;7.40;99.90;;;;;;5083140;28;20659;-89
2023/04/10 00:13:25;;;;;;;46.40;33.50;;;7.30;99.90;;;;;;5066763;28;20047;-90
2023/04/10 00:15:51;;;;;;;50.20;33.88;;;7.30;99.90;;;;;;5085553;28;20044;-90
2023/04/10 00:18:17;;;;;;;48.25;33.90;;;7.30;99.90;;;;;;5066647;28;20059;-89
2023/04/10 00:20:42;;;;;;;43.75;32.00;;;7.30;99.90;;;;;;5067562;28;20050;-89
2023/04/10 00:23:08;;;;;;;48.13;33.78;;;7.20;99.90;;;;;;5064652;28;20036;-89
2023/04/10 00:25:34;;;;;;;50.85;34.15;;;7.20;99.90;;;;;;5079911;28;20031;-89
2023/04/10 00:27:59;;;;;;;49.85;33.22;;;7.20;99.90;;;;;;5083139;28;20036;-89
2023/04/10 00:30:25;;;;;;;50.55;35.08;;;7.10;99.90;;;;;;5065102;28;20314;-89
2023/04/10 00:32:51;;;;;;;51.53;34.90;;;7.10;99.90;;;;;;5080563;28;20126;-88
2023/04/10 00:35:17;;;;;;;50.55;35.13;;;7.10;99.90;;;;;;5066813;28;20629;-89
2023/04/10 00:37:42;;;;;;;50.47;34.47;;;7.10;99.90;;;;;;5102253;27;20319;-90
2023/04/10 00:40:08;;;;;;;53.88;34.65;;;7.00;99.90;;;;;;5078393;28;20032;-90
2023/04/10 00:42:34;;;;;;;50.58;34.90;;;7.00;99.90;;;;;;5066220;28;20036;-89
2023/04/10 00:44:59;;;;;;;48.85;34.65;;;7.00;99.90;;;;;;5065926;28;20046;-91
2023/04/10 00:47:26;;;;;;;48.42;35.17;;;6.90;99.90;;;;;;5084151;28;20048;-90
2023/04/10 00:49:52;;;;;;;53.55;37.33;;;6.90;99.90;;;;;;5068795;28;20129;-90
2023/04/10 00:52:19;;;;;;;54.75;37.58;;;6.80;99.90;;;;;;5082374;28;20043;-91
2023/04/10 00:54:45;;;;;;;49.00;36.03;;;6.80;99.90;;;;;;5069315;28;20067;-90
2023/04/10 00:57:11;;;;;;;50.95;35.83;;;6.70;99.90;;;;;;5079297;28;20140;-89
2023/04/10 00:59:37;;;;;;;51.85;36.33;;;6.70;99.90;;;;;;5083386;28;20037;-90
2023/04/10 01:02:02;;;;;;;54.20;37.72;;;6.70;99.90;;;;;;5066801;28;20031;-90
2023/04/10 01:04:30;;;;;;;53.85;37.58;;;6.60;99.90;;;;;;5100936;28;20375;-89
2023/04/10 01:07:03;;;;;;;55.95;38.60;;;6.60;99.90;;;;;;5067360;28;20137;-89
2023/04/10 01:09:47;;;;;;;53.10;37.70;;;6.50;99.90;;;;;;5077984;28;20051;-90
2023/04/10 01:12:22;;;;;;;59.27;39.27;;;6.50;99.90;;;;;;5099729;28;20629;-88
2023/04/10 01:15:06;;;;;;;52.72;37.28;;;6.50;99.90;;;;;;5080258;28;20036;-90
2023/04/10 01:17:40;;;;;;;56.65;38.95;;;6.50;99.90;;;;;;5065113;28;20048;-90
2023/04/10 01:20:13;;;;;;;53.37;38.03;;;6.40;99.90;;;;;;5065947;28;20040;-89
2023/04/10 01:23:19;;;;;;;59.38;41.70;;;6.40;99.90;;;;;;5083855;28;20352;-90
2023/04/10 01:25:45;;;;;;;54.42;38.97;;;6.40;99.90;;;;;;5078275;28;20071;-90
2023/04/10 01:28:39;;;;;;;57.72;39.72;;;6.30;99.90;;;;;;5084254;28;20139;-90
2023/04/10 01:31:07;;;;;;;60.55;41.95;;;6.30;99.90;;;;;;5081832;28;20232;-89
2023/04/10 01:33:46;;;;;;;60.25;42.72;;;6.30;99.90;;;;;;5080978;28;20096;-89
2023/04/10 01:36:17;;;;;;;60.00;41.88;;;6.40;99.90;;;;;;5085866;28;20046;-89
2023/04/10 01:38:44;;;;;;;63.72;41.42;;;6.40;99.90;;;;;;5070498;28;20111;-90
2023/04/10 01:41:10;;;;;;;58.20;40.95;;;6.30;99.90;;;;;;5068313;28;20071;-90
2023/04/10 01:43:38;;;;;;;61.55;42.60;;;6.30;99.90;;;;;;5084286;28;20087;-89
2023/04/10 01:46:04;;;;;;;59.33;41.22;;;6.30;99.90;;;;;;5083639;28;20040;-90
2023/04/10 01:48:30;;;;;;;62.33;42.80;;;6.30;99.90;;;;;;5102439;27;20032;-89
2023/04/10 01:50:56;;;;;;;61.90;42.22;;;6.30;99.90;;;;;;5070095;28;20419;-89
2023/04/10 01:53:23;;;;;;;59.05;41.25;;;6.30;99.90;;;;;;5087203;28;20078;-90
2023/04/10 01:55:50;;;;;;;63.15;43.40;;;6.30;99.90;;;;;;5073632;28;20040;-90
2023/04/10 01:58:16;;;;;;;60.42;42.25;;;6.30;99.90;;;;;;5082945;28;20058;-90
2023/04/10 02:00:42;;;;;;;60.30;41.95;;;6.30;99.90;;;;;;5071696;28;20039;-89
2023/04/10 02:03:11;;;;;;;60.65;42.80;;;6.30;99.90;;;;;;5069637;28;20114;-91
2023/04/10 02:06:08;;;;;;;62.35;44.13;;;6.40;99.90;;;;;;5069715;28;20040;-90
2023/04/10 02:08:39;;;;;;;62.97;43.67;;;6.30;99.90;;;;;;5070262;28;20197;-90
2023/04/10 02:11:31;;;;;;;62.45;43.17;;;6.40;99.90;;;;;;5073611;28;20486;-90
2023/04/10 02:14:01;;;;;;;65.20;45.25;;;6.40;99.90;;;;;;5080738;28;20047;-90
2023/04/10 02:16:29;;;;;;;65.78;43.65;;;6.40;99.90;;;;;;5083078;28;20044;-88
2023/04/10 02:18:57;;;;;;;62.58;43.30;;;6.50;99.90;;;;;;5069971;28;20032;-90
2023/04/10 02:21:23;;;;;;;63.65;44.53;;;6.50;99.90;;;;;;5083507;28;20119;-90
2023/04/10 02:23:49;;;;;;;63.13;43.50;;;6.50;99.90;;;;;;5087287;28;20123;-90
2023/04/10 02:26:15;;;;;;;62.15;42.05;;;6.60;99.90;;;;;;5104007;27;20079;-91
2023/04/10 02:28:40;;;;;;;59.28;43.50;;;6.50;99.90;;;;;;5079205;28;20516;-91
2023/04/10 02:31:06;;;;;;;63.70;43.20;;;6.60;99.90;;;;;;5084001;28;20506;-89
2023/04/10 02:33:32;;;;;;;67.10;44.65;;;6.60;99.90;;;;;;5086702;28;20122;-90
2023/04/10 02:36:00;;;;;;;65.05;44.80;;;6.50;99.90;;;;;;5067884;28;20139;-89
2023/04/10 02:38:26;;;;;;;62.72;42.28;;;6.50;99.90;;;;;;5085241;28;20371;-91
2023/04/10 02:40:52;;;;;;;65.85;43.83;;;6.50;99.90;;;;;;5069784;28;20035;-90
2023/04/10 02:43:17;;;;;;;64.88;43.53;;;6.50;99.90;;;;;;5082967;28;20044;-88
2023/04/10 02:45:43;;;;;;;62.63;43.47;;;6.50;99.90;;;;;;5065499;28;20079;-90
2023/04/10 02:48:10;;;;;;;65.15;43.88;;;6.50;99.90;;;;;;5080833;28;20047;-89
2023/04/10 02:50:35;;;;;;;63.55;43.42;;;6.40;99.90;;;;;;5077698;28;20127;-89
2023/04/10 02:53:01;;;;;;;60.80;43.28;;;6.40;99.90;;;;;;5068692;28;20126;-90
2023/04/10 02:55:27;;;;;;;62.85;42.97;;;6.40;99.90;;;;;;5083549;28;20044;-89
2023/04/10 02:57:53;;;;;;;60.60;42.42;;;6.40;99.90;;;;;;5080569;28;20024;-90
2023/04/10 03:00:18;;;;;;;64.63;42.88;;;6.40;99.90;;;;;;5069621;28;20103;-89
2023/04/10 03:02:44;;;;;;;59.80;42.40;;;6.40;99.90;;;;;;5071255;28;20056;-90
2023/04/10 03:05:10;;;;;;;63.53;43.55;;;6.40;99.90;;;;;;5067513;28;20044;-88
2023/04/10 03:07:36;;;;;;;65.38;43.22;;;6.40;99.90;;;;;;5081842;28;20056;-89
2023/04/10 03:10:02;;;;;;;57.63;40.47;;;6.40;99.90;;;;;;5083792;28;20057;-91
2023/04/10 03:12:27;;;;;;;60.50;41.35;;;6.40;99.90;;;;;;5068786;28;20043;-90
2023/04/10 03:14:56;;;;;;;58.60;41.97;;;6.40;99.90;;;;;;5067552;28;20075;-90
2023/04/10 03:17:21;;;;;;;58.70;41.45;;;6.40;99.90;;;;;;5067977;28;20036;-90
2023/04/10 03:19:47;;;;;;;62.42;42.75;;;6.40;99.90;;;;;;5070671;28;20085;-91
2023/04/10 03:22:13;;;;;;;61.08;43.70;;;6.30;99.90;;;;;;5070659;28;20036;-91
2023/04/10 03:24:39;;;;;;;61.60;41.35;;;6.30;99.90;;;;;;5069329;28;20035;-88
2023/04/10 03:27:05;;;;;;;58.35;40.17;;;6.20;99.90;;;;;;5066260;28;20040;-89
2023/04/10 03:29:31;;;;;;;66.40;43.47;;;6.20;99.90;;;;;;5066591;28;20086;-89
2023/04/10 03:31:56;;;;;;;63.85;42.60;;;6.20;99.90;;;;;;5098136;27;20044;-90
2023/04/10 03:34:22;;;;;;;61.28;42.70;;;6.10;99.90;;;;;;5087688;28;20102;-89
2023/04/10 03:36:48;;;;;;;59.45;41.97;;;6.10;99.90;;;;;;5067545;28;20054;-90
2023/04/10 03:39:13;;;;;;;59.42;41.92;;;6.10;99.90;;;;;;5067282;28;20040;-90
2023/04/10 03:41:39;;;;;;;62.78;43.47;;;6.20;99.90;;;;;;5068555;28;20090;-89
2023/04/10 03:44:05;;;;;;;60.92;42.67;;;6.10;99.90;;;;;;5078726;28;20065;-90
2023/04/10 03:46:30;;;;;;;58.83;41.50;;;6.10;99.90;;;;;;5081741;28;20040;-89
2023/04/10 03:48:56;;;;;;;64.07;41.72;;;6.00;99.90;;;;;;5066842;28;20937;-89
2023/04/10 03:51:23;;;;;;;65.22;42.65;;;6.00;99.90;;;;;;5067887;28;20044;-89
2023/04/10 03:53:49;;;;;;;64.43;43.55;;;6.00;99.90;;;;;;5088092;28;20048;-91
2023/04/10 03:56:15;;;;;;;61.13;42.47;;;6.00;99.90;;;;;;5082394;28;20040;-91
2023/04/10 03:58:41;;;;;;;63.85;43.83;;;6.00;99.90;;;;;;5062428;28;20062;-89
2023/04/10 04:01:07;;;;;;;63.60;43.90;;;6.00;99.90;;;;;;5086489;28;20039;-91
2023/04/10 04:03:32;;;;;;;66.05;44.28;;;6.00;99.90;;;;;;5069470;28;20205;-89
2023/04/10 04:05:58;;;;;;;64.80;45.10;;;6.00;99.90;;;;;;5069296;28;20126;-90
2023/04/10 04:08:24;;;;;;;68.32;45.60;;;6.00;99.90;;;;;;5069708;28;20089;-90
2023/04/10 04:10:49;;;;;;;63.25;43.85;;;6.00;99.90;;;;;;5068187;28;20044;-91
2023/04/10 04:13:15;;;;;;;69.82;46.13;;;6.00;99.90;;;;;;5067611;28;20036;-90
2023/04/10 04:15:41;;;;;;;68.82;47.40;;;6.00;99.90;;;;;;5082213;28;20040;-90
2023/04/10 04:18:09;;;;;;;70.38;46.35;;;6.10;99.90;;;;;;5067966;28;20405;-90
2023/04/10 04:20:36;;;;;;;64.43;44.70;;;6.10;99.90;;;;;;5082215;28;20340;-91
2023/04/10 04:23:01;;;;;;;73.22;46.22;;;6.10;99.90;;;;;;5079132;28;20098;-89
2023/04/10 04:25:27;;;;;;;67.95;45.75;;;6.20;99.90;;;;;;5099813;27;20434;-90
2023/04/10 04:27:52;;;;;;;70.70;47.58;;;6.20;99.90;;;;;;5071367;28;20058;-89
2023/04/10 04:30:24;;;;;;;69.57;47.90;;;6.30;99.90;;;;;;5084838;28;20230;-90
2023/04/10 04:32:49;;;;;;;71.82;47.40;;;6.40;99.90;;;;;;5068830;28;20611;-90
2023/04/10 04:35:16;;;;;;;71.85;47.40;;;6.40;99.90;;;;;;5068966;28;20056;-90
2023/04/10 04:37:42;;;;;;;72.43;48.28;;;6.50;99.90;;;;;;5097731;28;20040;-90
2023/04/10 04:40:08;;;;;;;73.35;49.72;;;6.50;99.90;;;;;;5067950;28;20044;-90
2023/04/10 04:42:33;;;;;;;72.22;47.38;;;6.60;99.90;;;;;;5065747;28;20133;-92
2023/04/10 04:45:02;;;;;;;70.93;47.40;;;6.70;99.90;;;;;;5083473;28;20038;-91
2023/04/10 04:47:27;;;;;;;72.78;48.08;;;6.80;99.90;;;;;;5101732;27;20062;-91
2023/04/10 04:49:53;;;;;;;72.15;48.30;;;6.80;99.90;;;;;;5084423;28;20037;-89
2023/04/10 04:52:19;;;;;;;73.40;48.08;;;6.80;99.90;;;;;;5083575;28;20047;-89
2023/04/10 04:54:45;;;;;;;67.63;46.20;;;6.90;99.90;;;;;;5067268;28;20038;-91
2023/04/10 04:57:10;;;;;;;73.22;47.10;;;6.90;99.90;;;;;;5082343;28;20040;-91
2023/04/10 04:59:37;;;;;;;69.10;49.25;;;6.90;99.90;;;;;;5067672;28;20036;-91
2023/04/10 05:02:02;;;;;;;72.22;46.65;;;7.00;99.90;;;;;;5065066;28;20059;-91
2023/04/10 05:04:28;;;;;;;69.97;48.55;;;7.00;99.90;;;;;;5079355;28;20064;-90
2023/04/10 05:06:57;;;;;;;72.47;47.90;;;7.00;99.90;;;;;;5081995;28;20045;-90
2023/04/10 05:09:22;;;;;;;73.10;49.22;;;7.00;99.90;;;;;;5068894;28;20126;-90
2023/04/10 05:11:49;;;;;;;72.18;48.10;;;7.10;99.90;;;;;;5085842;28;20131;-91
2023/04/10 05:14:15;;;;;;;70.78;46.80;;;7.10;99.90;;;;;;5070539;28;20036;-90
2023/04/10 05:16:40;;;;;;;68.18;46.45;;;7.10;99.90;;;;;;5101240;27;20094;-90
2023/04/10 05:19:06;;;;;;;66.82;46.55;;;7.20;99.90;;;;;;5071259;28;20044;-91
2023/04/10 05:21:32;;;;;;;68.82;46.17;;;7.20;99.90;;;;;;5080511;28;20865;-90
2023/04/10 05:24:01;;;;;;;71.95;46.72;;;7.20;99.90;;;;;;5086899;28;20032;-91
2023/04/10 05:26:26;;;;;;;68.15;46.15;;;7.30;99.90;;;;;;5106052;27;20036;-90
2023/04/10 05:28:52;;;;;;;67.25;46.47;;;7.30;99.90;;;;;;5084400;28;20044;-90
2023/04/10 05:31:18;;;;;;;69.35;47.13;;;7.30;99.90;;;;;;5085203;28;20185;-90
2023/04/10 05:33:43;;;;;;;62.05;44.33;;;7.40;99.90;;;;;;5084595;28;20122;-89
2023/04/10 05:36:09;;;;;;;65.90;45.25;;;7.40;99.90;;;;;;5082283;28;20095;-91
2023/04/10 05:38:35;;;;;;;64.55;44.75;;;7.50;99.90;;;;;;5070195;28;20044;-89
2023/04/10 05:41:01;;;;;;;60.95;43.72;;;7.50;99.90;;;;;;5086006;28;20112;-91
2023/04/10 05:43:26;;;;;;;62.58;43.78;;;7.60;99.90;;;;;;5090640;28;20028;-90
2023/04/10 05:45:52;;;;;;;62.35;42.83;;;7.70;99.90;;;;;;5091948;28;20128;-89
2023/04/10 05:48:18;;;;;;;62.72;40.85;;;7.70;99.90;;;;;;5071301;28;20044;-90
2023/04/10 05:50:43;;;;;;;61.85;42.75;;;7.80;99.90;;;;;;5070924;28;20131;-90
2023/04/10 05:53:12;;;;;;;62.42;42.20;;;7.80;99.90;;;;;;5088512;28;20115;-90
2023/04/10 05:55:38;;;;;;;61.03;42.20;;;7.90;25.40;;;;;;5092595;28;20039;-91
2023/04/10 05:58:04;;;;;;;56.25;38.67;;;8.00;1.00;;;;;;5088315;28;20373;-89
2023/04/10 06:00:30;;;;;;;55.75;38.92;;;8.10;99.90;;;;;;5086899;28;20078;-90
2023/04/10 06:02:56;;;;;;;52.90;37.88;;;8.20;99.90;;;;;;5081346;28;20430;-90
2023/04/10 06:05:21;;;;;;;52.55;37.55;;;8.30;86.00;;;;;;5069346;28;20450;-89
2023/04/10 06:07:47;;;;;;;52.88;35.67;;;8.30;16.00;;;;;;5068954;28;20066;-90
2023/04/10 06:10:12;;;;;;;52.28;35.08;;;8.40;99.90;;;;;;5084522;28;20131;-90
2023/04/10 06:12:38;;;;;;;54.58;36.92;;;8.50;31.60;;;;;;5086901;28;20490;-90
2023/04/10 06:15:04;;;;;;;50.35;33.65;;;8.60;99.90;;;;;;5069100;28;20067;-91
2023/04/10 06:17:30;;;;;;;46.85;33.13;;;8.70;99.90;;;;;;5109780;27;20036;-89
2023/04/10 06:19:58;;;;;;;50.78;36.20;;;8.70;99.90;;;;;;5072736;28;20479;-90
2023/04/10 06:22:24;;;;;;;50.08;34.40;;;8.80;99.90;;;;;;5087264;28;20035;-91
2023/04/10 06:24:49;;;;;;;48.58;34.03;;;8.80;99.90;;;;;;5083254;28;20039;-90
2023/04/10 06:27:18;;;;;;;48.35;33.72;;;8.80;99.90;;;;;;5084600;28;20048;-89
2023/04/10 06:29:44;;;;;;;47.03;33.53;;;8.90;1.00;;;;;;5080441;28;20042;-89
2023/04/10 06:32:10;;;;;;;45.10;33.33;;;8.90;1.00;;;;;;5069227;28;20040;-89
2023/04/10 06:34:35;;;;;;;49.42;35.13;;;9.00;99.90;;;;;;5082967;28;20047;-90
2023/04/10 06:37:02;;;;;;;46.28;34.28;;;9.20;99.90;;;;;;5082639;28;20499;-92
2023/04/10 06:39:27;;;;;;;46.85;33.22;;;9.20;99.90;;;;;;5084188;28;20170;-91
2023/04/10 06:41:53;;;;;;;45.05;32.58;;;9.30;1.00;;;;;;5088647;28;20510;-89
2023/04/10 06:44:19;;;;;;;44.72;30.55;;;9.30;99.90;;;;;;5082189;28;20123;-89
2023/04/10 06:46:45;;;;;;;45.00;32.30;;;9.40;99.90;;;;;;5101272;27;20063;-89
2023/04/10 06:49:10;;;;;;;46.00;32.70;;;9.50;99.90;;;;;;5087272;28;20497;-90
2023/04/10 06:51:36;;;;;;;46.50;31.90;;;9.60;99.90;;;;;;5070659;28;20048;-89
2023/04/10 06:54:02;;;;;;;46.03;32.60;;;9.70;99.90;;;;;;5067263;28;20040;-90
2023/04/10 06:56:27;;;;;;;49.78;33.10;;;9.80;1.00;;;;;;5070039;28;20041;-90
2023/04/10 06:58:53;;;;;;;47.25;34.15;;;9.90;1.00;;;;;;5068600;28;20050;-90
2023/04/10 07:01:18;;;;;;;50.53;35.60;;;9.90;99.90;;;;;;5065999;28;20055;-91
2023/04/10 07:03:44;;;;;;;48.38;34.05;;;10.10;1.00;;;;;;5070813;28;20233;-90
2023/04/10 07:06:11;;;;;;;49.45;35.53;;;10.00;99.90;;;;;;5088079;28;20062;-90
2023/04/10 07:08:36;;;;;;;51.08;36.75;;;10.00;99.90;;;;;;5080299;28;20045;-88
2023/04/10 07:11:02;;;;;;;52.83;37.33;;;9.90;99.90;;;;;;5068800;28;20043;-89
2023/04/10 07:13:27;;;;;;;53.10;38.47;;;9.90;99.90;;;;;;5069043;28;20052;-89
2023/04/10 07:15:53;;;;;;;50.45;37.13;;;9.90;1.00;;;;;;5084156;28;20679;-91
2023/04/10 07:18:19;;;;;;;51.50;36.65;;;9.90;1.00;;;;;;5085363;28;20036;-91
2023/04/10 07:20:44;;;;;;;53.22;37.90;;;10.10;99.90;;;;;;5083092;28;20123;-90
2023/04/10 07:23:13;;;;;;;51.58;36.65;;;10.10;99.90;;;;;;5082528;28;20104;-88
2023/04/10 07:25:42;;;;;;;54.05;36.75;;;10.20;99.90;;;;;;5108539;27;20096;-89
2023/04/10 07:28:07;;;;;;;49.58;34.70;;;10.30;99.90;;;;;;5082650;28;20050;-90
2023/04/10 07:30:33;;;;;;;50.90;36.38;;;10.40;99.90;;;;;;5085140;28;20127;-90
2023/04/10 07:32:59;;;;;;;47.40;34.45;;;10.40;99.90;;;;;;5098914;27;20185;-90
2023/04/10 07:35:25;;;;;;;44.80;33.92;;;10.50;1.00;;;;;;5066932;28;20054;-89
2023/04/10 07:37:54;;;;;;;48.65;33.03;;;10.70;1.00;;;;;;5085489;28;20256;-89
2023/04/10 07:40:20;;;;;;;45.65;32.42;;;10.80;99.90;;;;;;5075154;28;20036;-90
2023/04/10 07:42:46;;;;;;;48.42;33.15;;;11.00;99.90;;;;;;5072344;28;20428;-90
2023/04/10 07:45:12;;;;;;;43.17;31.60;;;11.20;99.90;;;;;;5068455;28;20032;-89
2023/04/10 07:47:38;;;;;;;42.95;30.63;;;11.20;99.90;;;;;;5081601;28;20516;-89
2023/04/10 07:50:04;;;;;;;41.88;29.33;;;11.40;99.90;;;;;;5066077;28;20050;-90
2023/04/10 07:52:33;;;;;;;39.22;28.55;;;11.50;99.90;;;;;;5100017;27;20044;-90
2023/04/10 07:55:01;;;;;;;39.05;27.90;;;11.50;56.50;;;;;;5081588;28;20050;-91
2023/04/10 07:57:27;;;;;;;42.42;28.00;;;11.70;1.00;;;;;;5085024;28;20076;-89
2023/04/10 07:59:53;;;;;;;40.03;28.75;;;11.90;1.00;;;;;;5069750;28;20068;-90
2023/04/10 08:02:19;;;;;;;36.63;27.42;;;12.00;1.00;;;;;;5085063;28;20040;-91
2023/04/10 08:04:44;;;;;;;37.00;27.52;;;12.20;1.00;;;;;;5070281;28;20039;-91
2023/04/10 08:07:13;;;;;;;40.30;28.45;;;12.40;99.90;;;;;;5079680;28;20588;-91
2023/04/10 08:09:39;;;;;;;39.58;28.73;;;12.50;99.90;;;;;;5085265;28;20043;-88
2023/04/10 08:12:04;;;;;;;37.58;27.88;;;12.50;99.90;;;;;;5082639;28;20040;-89
2023/04/10 08:14:30;;;;;;;39.80;29.17;;;12.60;99.90;;;;;;5069052;28;20535;-90
2023/04/10 08:16:56;;;;;;;41.78;31.10;;;12.70;99.90;;;;;;5081795;28;20043;-90
2023/04/10 08:19:22;;;;;;;39.67;29.63;;;12.80;99.90;;;;;;5094509;27;20028;-90
2023/04/10 08:21:47;;;;;;;39.22;28.83;;;12.90;99.90;;;;;;5098219;27;20395;-90
2023/04/10 08:24:13;;;;;;;40.72;29.65;;;13.00;99.90;;;;;;5083075;28;20038;-90
2023/04/10 08:26:39;;;;;;;41.25;30.20;;;13.00;99.90;;;;;;5066939;28;20044;-89
2023/04/10 08:29:05;;;;;;;38.72;27.83;;;13.00;99.90;;;;;;5084952;28;20052;-90
2023/04/10 08:31:31;;;;;;;36.60;28.25;;;12.90;99.90;;;;;;5068876;28;20047;-90
2023/04/10 08:33:56;;;;;;;34.22;25.63;;;13.10;99.90;;;;;;5084068;28;20048;-89
2023/04/10 08:36:22;;;;;;;35.63;25.02;;;13.20;99.90;;;;;;5064025;28;20067;-90
2023/04/10 08:38:48;;;;;;;37.13;26.48;;;13.20;99.90;;;;;;5065033;28;20506;-90
2023/04/10 08:41:16;;;;;;;34.25;24.60;;;13.50;99.90;;;;;;5078504;28;20093;-90
2023/04/10 08:43:45;;;;;;;32.70;23.83;;;13.60;99.90;;;;;;5059701;28;20143;-90
2023/04/10 08:46:13;;;;;;;35.30;24.05;;;13.50;61.40;;;;;;5085017;28;20063;-91
2023/04/10 08:48:47;;;;;;;32.90;23.65;;;13.60;93.90;;;;;;5067074;28;20039;-91
2023/04/10 08:51:17;;;;;;;30.90;23.15;;;13.70;22.20;;;;;;5068767;28;20182;-90
2023/04/10 08:53:44;;;;;;;30.40;23.45;;;13.70;8.10;;;;;;5096862;28;20459;-91
2023/04/10 08:56:15;;;;;;;29.15;22.65;;;13.70;4.70;;;;;;5080614;28;20051;-90
2023/04/10 08:58:41;;;;;;;29.17;21.92;;;13.80;52.90;;;;;;5079826;28;20468;-88
2023/04/10 09:01:09;;;;;;;29.90;21.55;;;14.00;16.40;;;;;;5080141;28;20064;-89
2023/04/10 09:03:35;;;;;;;29.00;21.30;;;14.10;1.00;;;;;;5095774;28;20626;-89
2023/04/10 09:06:04;;;;;;;28.63;21.73;;;14.10;1.00;;;;;;5083864;28;20105;-90
2023/04/10 09:08:32;;;;;;;26.52;20.98;;;14.10;1.00;;;;;;5093692;28;20036;-89
2023/04/10 09:10:57;;;;;;;30.45;19.90;;;14.10;1.00;;;;;;5064316;28;20040;-90
2023/04/10 09:13:36;;;;;;;27.90;20.55;;;14.40;1.00;;;;;;5084476;28;20039;-89
2023/04/10 09:16:02;;;;;;;26.55;19.90;;;14.70;1.00;;;;;;5064242;28;20036;-90
2023/04/10 09:18:48;;;;;;;24.85;19.23;;;15.10;1.00;;;;;;5079043;28;20194;-90
2023/04/10 09:21:17;;;;;;;25.08;19.25;;;15.30;1.00;;;;;;5079626;28;20036;-90
2023/04/10 09:23:44;;;;;;;24.65;18.30;;;15.60;1.00;;;;;;5067858;28;20032;-90
2023/04/10 09:26:30;;;;;;;23.08;17.38;;;15.80;1.00;;;;;;5065512;28;20485;-91
2023/04/10 09:29:06;;;;;;;21.48;17.38;;;15.70;1.00;;;;;;5080683;28;20086;-91
2023/04/10 09:31:38;;;;;;;22.65;16.48;;;15.30;1.00;;;;;;5081863;28;20040;-90
2023/04/10 09:34:17;;;;;;;23.48;17.65;;;15.50;1.00;;;;;;5075790;28;20052;-91
2023/04/10 09:36:57;;;;;;;22.35;16.65;;;15.50;1.00;;;;;;5098211;28;20063;-90
2023/04/10 09:39:33;;;;;;;21.30;16.13;;;15.70;1.00;;;;;;5097032;28;20043;-89
2023/04/10 09:41:58;;;;;;;21.58;16.48;;;15.80;99.90;;;;;;5082540;28;20036;-90
2023/04/10 09:44:30;;;;;;;20.05;15.98;;;15.80;99.90;;;;;;5091672;28;20062;-89
2023/04/10 09:47:15;;;;;;;18.35;14.68;;;16.10;99.90;;;;;;5068856;28;20138;-90
2023/04/10 09:49:54;;;;;;;19.83;15.60;;;16.20;99.90;;;;;;5084407;28;20294;-89
2023/04/10 09:52:27;;;;;;;20.40;15.55;;;16.30;99.90;;;;;;5084495;28;20101;-90
2023/04/10 09:55:04;;;;;;;16.83;14.15;;;16.20;99.90;;;;;;5082073;28;20032;-92
2023/04/10 09:57:32;;;;;;;20.45;15.55;;;16.20;99.90;;;;;;5081121;28;20036;-91
2023/04/10 09:59:59;;;;;;;20.98;15.38;;;16.10;99.90;;;;;;5103460;27;20036;-89
2023/04/10 10:02:28;;;;;;;17.85;15.05;;;15.90;99.90;;;;;;5081601;28;20587;-90
2023/04/10 10:04:56;;;;;;;19.73;15.48;;;16.20;99.90;;;;;;5085058;28;20089;-90
2023/04/10 10:07:22;;;;;;;17.42;14.13;;;16.40;99.90;;;;;;5084152;28;20047;-90
2023/04/10 10:09:52;;;;;;;17.48;13.93;;;16.30;99.90;;;;;;5065482;28;20055;-91
2023/04/10 10:12:33;;;;;;;18.52;13.63;;;16.30;99.90;;;;;;5087018;28;20044;-90
2023/04/10 10:15:19;;;;;;;18.40;14.57;;;16.50;99.90;;;;;;5069484;28;20074;-89
2023/04/10 10:18:11;;;;;;;19.63;15.13;;;16.90;99.90;;;;;;5084961;28;20040;-90
2023/04/10 10:20:38;;;;;;;19.73;15.27;;;16.80;99.90;;;;;;5086766;28;20044;-89
2023/04/10 10:23:07;;;;;;;16.90;13.77;;;17.00;99.90;;;;;;5085251;28;20028;-90
2023/04/10 10:25:37;;;;;;;16.20;12.65;;;16.70;99.90;;;;;;5088982;28;20092;-89
2023/04/10 10:28:04;;;;;;;14.25;11.65;;;16.90;99.90;;;;;;5070116;28;20044;-91
2023/04/10 10:30:34;;;;;;;13.55;11.40;;;16.80;99.90;;;;;;5085077;28;20427;-91
2023/04/10 10:33:03;;;;;;;16.33;11.52;;;16.80;99.90;;;;;;5070025;28;20122;-90
2023/04/10 10:35:34;;;;;;;14.38;11.70;;;17.10;99.90;;;;;;5069412;28;20375;-89
2023/04/10 10:38:02;;;;;;;11.77;9.95;;;16.80;99.90;;;;;;5071350;28;20047;-90
2023/04/10 10:40:32;;;;;;;14.75;10.70;;;16.40;99.90;;;;;;5082398;28;20451;-90
2023/04/10 10:43:23;;;;;;;13.23;10.77;;;16.40;99.90;;;;;;5086013;28;20410;-93
2023/04/10 10:46:09;;;;;;;12.05;10.25;;;16.60;99.90;;;;;;5084189;28;20438;-91
2023/04/10 10:48:34;;;;;;;11.10;9.90;;;16.40;99.90;;;;;;5072659;28;20280;-90
2023/04/10 10:51:02;;;;;;;12.57;10.10;;;16.60;99.90;;;;;;5084161;28;20036;-90
2023/04/10 10:53:42;;;;;;;12.38;9.65;;;16.40;99.90;;;;;;5084565;28;20055;-90
2023/04/10 10:56:17;;;;;;;12.80;10.20;;;16.40;99.90;;;;;;5067384;28;20036;-89
2023/04/10 10:58:47;;;;;;;12.80;10.38;;;16.40;99.90;;;;;;5069203;28;20067;-89
2023/04/10 11:01:14;;;;;;;13.13;10.55;;;16.50;99.90;;;;;;5072628;28;20096;-88
2023/04/10 11:03:40;;;;;;;10.77;8.77;;;16.40;99.90;;;;;;5097323;27;20037;-90
2023/04/10 11:06:20;;;;;;;12.07;9.68;;;16.40;99.90;;;;;;5065034;28;20166;-89
2023/04/10 11:08:52;;;;;;;10.20;9.10;;;16.50;99.90;;;;;;5067730;28;20085;-89
2023/04/10 11:11:23;;;;;;;11.50;9.15;;;16.60;99.90;;;;;;5100282;27;20063;-89
2023/04/10 11:13:51;;;;;;;10.30;8.63;;;16.80;99.90;;;;;;5099385;27;20489;-89
2023/04/10 11:16:18;;;;;;;10.75;7.97;;;16.80;99.90;;;;;;5070488;28;20032;-89
2023/04/10 11:18:44;;;;;;;10.35;7.95;;;16.70;99.90;;;;;;5070773;28;20032;-90
2023/04/10 11:21:13;;;;;;;9.70;7.80;;;16.60;99.90;;;;;;5067545;28;20321;-90
2023/04/10 11:23:51;;;;;;;9.85;7.88;;;16.60;99.90;;;;;;5081849;28;20085;-90
2023/04/10 11:26:33;;;;;;;9.25;7.75;;;16.60;99.90;;;;;;5066253;28;20032;-90
2023/04/10 11:29:20;;;;;;;9.25;7.15;;;16.70;99.90;;;;;;5067329;28;21070;-90
2023/04/10 11:32:02;;;;;;;8.05;6.60;;;16.60;99.90;;;;;;5080573;28;20226;-90
2023/04/10 11:34:29;;;;;;;8.30;6.65;;;16.60;99.90;;;;;;5084629;28;20134;-90
2023/04/10 11:36:55;;;;;;;7.38;6.22;;;16.70;99.90;;;;;;5081039;28;20052;-92
2023/04/10 11:39:21;;;;;;;7.97;6.32;;;16.80;99.90;;;;;;5099103;27;20044;-90
2023/04/10 11:41:49;;;;;;;7.70;6.03;;;16.70;99.90;;;;;;5068687;28;20051;-90
2023/04/10 11:44:35;;;;;;;8.13;6.20;;;16.80;99.90;;;;;;5063457;28;20498;-89
2023/04/10 11:47:01;;;;;;;7.82;6.20;;;16.70;99.90;;;;;;5083242;28;20096;-91
2023/04/10 11:49:30;;;;;;;7.53;6.40;;;16.70;99.90;;;;;;5067500;28;20043;-89
2023/04/10 11:51:56;;;;;;;6.80;6.00;;;16.80;99.90;;;;;;5065789;28;20115;-90
2023/04/10 11:54:24;;;;;;;6.50;5.45;;;16.90;99.90;;;;;;5071467;28;20466;-90
2023/04/10 11:57:01;;;;;;;6.20;5.60;;;16.90;99.90;;;;;;5082579;28;20511;-91
2023/04/10 11:59:32;;;;;;;7.50;5.50;;;16.80;99.90;;;;;;5063578;28;20064;-91
2023/04/10 12:02:09;;;;;;;7.45;6.65;;;17.20;99.90;;;;;;5083129;28;20420;-89
2023/04/10 12:04:35;;;;;;;6.32;5.45;;;17.20;99.90;;;;;;5081980;28;20074;-89
2023/04/10 12:07:01;;;;;;;6.50;5.72;;;17.40;99.90;;;;;;5076346;28;20054;-87
2023/04/10 12:09:27;;;;;;;9.00;5.13;;;17.20;99.90;;;;;;5076677;28;20553;-87
2023/04/10 12:12:00;;;;;;;6.90;5.07;;;17.30;99.90;;;;;;5062059;28;20040;-87
2023/04/10 12:14:37;;;;;;;6.32;5.25;;;17.40;99.90;;;;;;5077729;28;20036;-86
2023/04/10 12:17:05;;;;;;;6.32;5.18;;;17.50;99.90;;;;;;5078942;28;20093;-87
2023/04/10 12:19:32;;;;;;;7.40;4.70;;;17.70;99.90;;;;;;5061120;28;20051;-87
2023/04/10 12:22:00;;;;;;;6.03;4.90;;;17.80;99.90;;;;;;5081377;28;20081;-87
2023/04/10 12:24:49;;;;;;;5.63;4.65;;;18.50;99.90;;;;;;5075354;28;20044;-86
2023/04/10 12:27:26;;;;;;;5.88;4.78;;;18.50;99.90;;;;;;5075519;28;20044;-87
2023/04/10 12:29:57;;;;;;;5.63;4.40;;;18.50;99.90;;;;;;5075920;28;20126;-87
2023/04/10 12:32:24;;;;;;;8.57;4.97;;;18.40;99.90;;;;;;5074003;28;20063;-86
2023/04/10 12:34:57;;;;;;;6.93;4.65;;;18.40;99.90;;;;;;5066683;28;20047;-87
2023/04/10 12:37:24;;;;;;;7.35;5.07;;;18.20;99.90;;;;;;5076247;28;20124;-87
2023/04/10 12:39:51;;;;;;;7.40;5.85;;;18.10;99.90;;;;;;5048191;28;20086;-86
2023/04/10 12:42:20;;;;;;;6.07;4.55;;;18.00;99.90;;;;;;5076135;28;20445;-87